createdAt,value
2023-05-23T00:02:08.797Z,44.28
2023-05-23T00:04:36.987Z,53.53
2023-05-23T00:07:04.656Z,52.72
2023-05-23T00:09:32.039Z,49.63
2023-05-23T00:11:59.501Z,44.85
2023-05-23T00:14:27.110Z,48.42
2023-05-23T00:16:55.561Z,51.35
2023-05-23T00:19:22.769Z,50.95
2023-05-23T00:21:51.040Z,51.97
2023-05-23T00:24:19.206Z,49.55
2023-05-23T00:26:46.968Z,47.05
2023-05-23T00:29:18.463Z,45.75
2023-05-23T00:31:47.350Z,48.15
2023-05-23T00:34:17.830Z,51.67
2023-05-23T00:36:47.885Z,46.63
2023-05-23T00:39:19.976Z,46.42
2023-05-23T00:41:52.132Z,49.47
2023-05-23T00:44:21.202Z,45.43
2023-05-23T00:46:55.544Z,45.80
2023-05-23T00:49:23.070Z,44.80
2023-05-23T00:51:52.379Z,46.03
2023-05-23T00:54:25.974Z,44.25
2023-05-23T00:56:53.583Z,52.60
2023-05-23T00:59:21.797Z,53.85
2023-05-23T01:01:53.062Z,49.53
2023-05-23T01:04:20.587Z,50.90
2023-05-23T01:06:49.608Z,54.40
2023-05-23T01:09:18.581Z,48.80
2023-05-23T01:12:26.409Z,53.30
2023-05-23T01:15:10.388Z,51.85
2023-05-23T01:17:49.343Z,46.72
2023-05-23T01:20:42.002Z,55.55
2023-05-23T01:23:55.880Z,57.33
2023-05-23T01:26:42.342Z,53.63
2023-05-23T01:29:23.337Z,59.20
2023-05-23T01:31:55.070Z,58.28
2023-05-23T01:34:23.333Z,62.65
2023-05-23T01:36:55.840Z,52.50
2023-05-23T01:41:52.059Z,49.00
2023-05-23T01:44:21.219Z,51.95
2023-05-23T01:46:49.151Z,51.10
2023-05-23T01:49:18.256Z,52.15
2023-05-23T01:51:46.560Z,53.10
2023-05-23T01:54:17.463Z,53.05
2023-05-23T01:56:45.942Z,47.83
2023-05-23T01:59:13.282Z,56.90
2023-05-23T02:01:41.535Z,47.33
2023-05-23T02:04:09.372Z,52.08
2023-05-23T02:06:36.489Z,48.70
2023-05-23T02:09:04.348Z,53.38
2023-05-23T02:11:31.404Z,46.63
2023-05-23T02:13:58.418Z,45.75
2023-05-23T02:16:26.404Z,48.90
2023-05-23T02:18:56.841Z,47.75
2023-05-23T02:21:24.534Z,45.53
2023-05-23T02:23:51.846Z,44.88
2023-05-23T02:26:19.205Z,44.85
2023-05-23T02:28:46.184Z,45.42
2023-05-23T02:31:13.281Z,44.13
2023-05-23T02:33:40.208Z,52.33
2023-05-23T02:36:07.685Z,47.47
2023-05-23T02:38:34.612Z,44.72
2023-05-23T02:41:01.638Z,48.78
2023-05-23T02:43:29.278Z,47.92
2023-05-23T02:45:56.361Z,45.65
2023-05-23T02:48:23.706Z,45.92
2023-05-23T02:50:51.217Z,47.90
2023-05-23T02:53:18.432Z,44.10
2023-05-23T02:55:45.516Z,45.65
2023-05-23T02:58:12.657Z,43.28
2023-05-23T03:00:40.376Z,40.33
2023-05-23T03:03:07.672Z,42.13
2023-05-23T03:05:34.677Z,40.63
2023-05-23T03:08:02.451Z,41.97
2023-05-23T03:10:29.300Z,43.10
2023-05-23T03:12:56.370Z,47.05
2023-05-23T03:15:23.419Z,40.92
2023-05-23T03:17:50.526Z,42.00
2023-05-23T03:20:17.582Z,41.53
2023-05-23T03:22:45.721Z,40.05
2023-05-23T03:25:12.952Z,41.45
2023-05-23T03:27:40.045Z,38.50
2023-05-23T03:30:08.348Z,41.65
2023-05-23T03:32:36.170Z,43.85
2023-05-23T03:35:03.256Z,38.85
2023-05-23T03:37:30.283Z,39.95
2023-05-23T03:39:57.326Z,37.83
2023-05-23T03:42:24.745Z,37.17
2023-05-23T03:44:51.805Z,39.72
2023-05-23T03:47:18.932Z,44.10
2023-05-23T03:49:46.223Z,37.58
2023-05-23T03:52:13.392Z,36.92
2023-05-23T03:54:40.632Z,39.97
2023-05-23T03:57:08.188Z,39.33
2023-05-23T03:59:37.506Z,43.65
2023-05-23T04:02:04.783Z,41.67
2023-05-23T04:04:32.858Z,40.00
2023-05-23T04:07:00.101Z,38.95
2023-05-23T04:09:27.378Z,38.63
2023-05-23T04:11:54.346Z,36.47
2023-05-23T04:14:22.597Z,33.28
2023-05-23T04:16:49.625Z,35.15
2023-05-23T04:19:17.315Z,31.92
2023-05-23T04:21:44.403Z,34.38
2023-05-23T04:24:11.722Z,31.75
2023-05-23T04:26:43.952Z,33.63
2023-05-23T04:29:12.282Z,39.55
2023-05-23T04:31:39.557Z,33.80
2023-05-23T04:34:08.248Z,33.60
2023-05-23T04:36:38.334Z,35.75
2023-05-23T04:39:06.415Z,37.47
2023-05-23T04:41:33.544Z,33.40
2023-05-23T04:44:00.834Z,35.70
2023-05-23T04:46:27.856Z,34.95
2023-05-23T04:48:59.468Z,33.33
2023-05-23T04:51:26.574Z,34.22
2023-05-23T04:53:55.333Z,31.00
2023-05-23T04:56:22.589Z,30.42
2023-05-23T04:58:49.709Z,28.20
2023-05-23T05:01:17.054Z,24.00
2023-05-23T05:03:45.155Z,24.90
2023-05-23T05:06:12.355Z,24.95
2023-05-23T05:08:40.861Z,30.05
2023-05-23T05:11:08.970Z,23.73
2023-05-23T05:13:36.522Z,23.40
2023-05-23T05:16:04.006Z,20.35
2023-05-23T05:18:31.487Z,20.17
2023-05-23T05:20:59.149Z,18.92
2023-05-23T05:23:29.067Z,18.27
2023-05-23T05:25:56.866Z,17.85
2023-05-23T05:28:23.825Z,15.32
2023-05-23T05:30:55.637Z,16.42
2023-05-23T05:33:26.388Z,15.30
2023-05-23T05:35:53.310Z,15.43
2023-05-23T05:38:20.787Z,17.65
2023-05-23T05:40:47.832Z,18.70
2023-05-23T05:43:16.978Z,14.27
2023-05-23T05:45:45.469Z,13.68
2023-05-23T05:48:13.023Z,13.70
2023-05-23T05:50:40.662Z,14.63
2023-05-23T05:53:08.767Z,16.67
2023-05-23T05:55:36.040Z,13.13
2023-05-23T05:58:03.088Z,15.70
2023-05-23T06:00:31.077Z,15.60
2023-05-23T06:02:58.308Z,13.68
2023-05-23T06:05:26.727Z,14.55
2023-05-23T06:07:53.938Z,17.40
2023-05-23T06:10:21.168Z,14.63
2023-05-23T06:12:49.783Z,15.95
2023-05-23T06:15:17.555Z,11.88
2023-05-23T06:17:45.241Z,14.43
2023-05-23T06:20:13.297Z,14.23
2023-05-23T06:22:40.469Z,13.07
2023-05-23T06:25:08.249Z,14.35
2023-05-23T06:27:35.610Z,15.32
2023-05-23T06:30:06.937Z,16.90
2023-05-23T06:32:33.893Z,15.55
2023-05-23T06:35:01.827Z,14.70
2023-05-23T06:37:28.803Z,17.65
2023-05-23T06:39:55.874Z,15.70
2023-05-23T06:42:22.954Z,14.73
2023-05-23T06:44:50.027Z,16.45
2023-05-23T06:47:17.021Z,13.00
2023-05-23T06:49:44.172Z,16.17
2023-05-23T06:52:11.703Z,14.95
2023-05-23T06:54:39.049Z,15.50
2023-05-23T06:57:06.442Z,16.27
2023-05-23T06:59:33.541Z,16.98
2023-05-23T07:02:00.592Z,13.27
2023-05-23T07:04:27.719Z,12.18
2023-05-23T07:06:54.686Z,12.50
2023-05-23T07:09:21.771Z,12.20
2023-05-23T07:11:48.848Z,8.30
2023-05-23T07:14:16.617Z,7.88
2023-05-23T07:16:43.939Z,8.70
2023-05-23T07:19:11.236Z,5.32
2023-05-23T07:21:38.317Z,5.55
2023-05-23T07:24:06.436Z,4.20
2023-05-23T07:26:33.508Z,8.90
2023-05-23T07:29:00.919Z,6.90
2023-05-23T07:31:28.386Z,4.95
2023-05-23T07:33:57.214Z,5.13
2023-05-23T07:36:24.661Z,4.72
2023-05-23T07:38:53.644Z,7.53
2023-05-23T07:41:21.343Z,5.82
2023-05-23T07:43:50.933Z,5.07
2023-05-23T07:46:18.943Z,5.05
2023-05-23T07:48:46.386Z,5.47
2023-05-23T07:51:13.477Z,4.47
2023-05-23T07:53:40.562Z,4.90
2023-05-23T07:56:08.336Z,5.22
2023-05-23T07:58:35.253Z,4.55
2023-05-23T08:01:04.035Z,7.07
2023-05-23T08:03:31.479Z,5.13
2023-05-23T08:05:58.905Z,7.22
2023-05-23T08:08:25.915Z,5.43
2023-05-23T08:10:54.499Z,5.95
2023-05-23T08:13:21.828Z,4.57
2023-05-23T08:15:49.140Z,4.95
2023-05-23T08:18:17.110Z,6.10
2023-05-23T08:20:44.255Z,5.35
2023-05-23T08:23:12.994Z,6.25
2023-05-23T08:25:40.587Z,5.28
2023-05-23T08:28:08.097Z,5.32
2023-05-23T08:30:38.135Z,5.43
2023-05-23T08:33:05.332Z,4.85
2023-05-23T08:35:35.781Z,4.85
2023-05-23T08:38:06.238Z,5.53
2023-05-23T08:40:34.529Z,6.25
2023-05-23T08:43:03.416Z,7.63
2023-05-23T08:45:31.538Z,4.75
2023-05-23T08:48:01.510Z,5.57
2023-05-23T08:50:30.595Z,4.60
2023-05-23T08:52:59.630Z,5.95
2023-05-23T08:55:29.450Z,6.20
2023-05-23T08:58:01.685Z,6.22
2023-05-23T09:00:30.579Z,5.63
2023-05-23T09:02:57.929Z,5.45
2023-05-23T09:05:27.278Z,4.60
2023-05-23T09:07:55.244Z,4.88
2023-05-23T09:10:23.008Z,6.30
2023-05-23T09:12:50.173Z,4.80
2023-05-23T09:15:17.677Z,5.47
2023-05-23T09:17:47.385Z,4.60
2023-05-23T09:20:17.864Z,4.03
2023-05-23T09:22:48.442Z,3.85
2023-05-23T09:25:16.375Z,4.55
2023-05-23T09:27:45.926Z,3.75
2023-05-23T09:30:15.336Z,12.10
2023-05-23T09:32:58.300Z,5.40
2023-05-23T09:35:25.385Z,3.63
2023-05-23T09:37:56.253Z,4.57
2023-05-23T09:40:23.514Z,3.72
2023-05-23T09:42:51.962Z,5.30
2023-05-23T09:45:19.096Z,5.65
2023-05-23T09:47:53.390Z,4.18
2023-05-23T09:50:21.770Z,6.47
2023-05-23T09:52:49.529Z,3.53
2023-05-23T09:55:16.785Z,4.22
2023-05-23T09:57:46.758Z,4.00
2023-05-23T10:00:14.922Z,3.33
2023-05-23T10:03:14.386Z,3.50
2023-05-23T10:05:48.311Z,4.28
2023-05-23T10:08:43.527Z,3.20
2023-05-23T10:11:13.924Z,4.13
2023-05-23T10:13:46.344Z,4.78
2023-05-23T10:18:56.692Z,4.43
2023-05-23T10:21:59.661Z,3.63
2023-05-23T10:24:27.960Z,5.50
2023-05-23T10:26:56.281Z,4.93
2023-05-23T10:29:23.925Z,4.80
2023-05-23T10:31:52.950Z,4.72
2023-05-23T10:34:42.511Z,5.80
2023-05-23T10:37:27.533Z,4.68
2023-05-23T10:40:13.947Z,5.03
2023-05-23T10:42:54.865Z,5.82
2023-05-23T10:45:24.975Z,5.18
2023-05-23T10:47:53.077Z,4.88
2023-05-23T10:50:37.549Z,5.00
2023-05-23T10:53:06.517Z,4.95
2023-05-23T10:55:35.975Z,5.75
2023-05-23T10:58:22.949Z,5.20
2023-05-23T11:00:55.489Z,10.82
2023-05-23T11:03:48.739Z,7.10
2023-05-23T11:06:33.083Z,5.95
2023-05-23T11:11:53.983Z,5.72
2023-05-23T11:14:34.471Z,7.05
2023-05-23T11:17:17.057Z,6.60
2023-05-23T11:22:34.444Z,19.02
2023-05-23T11:25:07.454Z,5.93
2023-05-23T11:27:40.960Z,7.82
2023-05-23T11:30:19.475Z,6.68
2023-05-23T11:32:55.925Z,6.43
2023-05-23T11:35:23.672Z,5.78
2023-05-23T11:37:51.375Z,8.02
2023-05-23T11:40:35.003Z,7.70
2023-05-23T11:43:15.523Z,7.15
2023-05-23T11:45:43.179Z,10.38
2023-05-23T11:48:16.776Z,7.72
2023-05-23T11:50:53.113Z,8.77
2023-05-23T11:53:25.679Z,6.15
2023-05-23T11:55:56.649Z,7.78
2023-05-23T11:58:31.642Z,6.57
2023-05-23T12:01:07.426Z,7.00
2023-05-23T12:03:35.987Z,6.90
2023-05-23T12:06:03.639Z,8.60
2023-05-23T12:08:30.974Z,8.43
2023-05-23T12:11:00.685Z,7.38
2023-05-23T12:13:30.122Z,10.50
2023-05-23T12:16:02.128Z,7.60
2023-05-23T12:18:32.083Z,8.18
2023-05-23T12:21:08.644Z,9.20
2023-05-23T12:23:36.364Z,6.60
2023-05-23T12:26:08.269Z,8.43
2023-05-23T12:28:43.151Z,8.75
2023-05-23T12:31:16.815Z,7.20
2023-05-23T12:33:46.164Z,8.38
2023-05-23T12:36:14.317Z,7.55
2023-05-23T12:38:45.629Z,8.32
2023-05-23T12:41:36.033Z,7.33
2023-05-23T12:44:04.688Z,7.53
2023-05-23T12:46:32.058Z,7.90
2023-05-23T12:48:59.587Z,8.85
2023-05-23T12:51:26.605Z,9.13
2023-05-23T12:53:55.127Z,9.60
2023-05-23T12:56:22.997Z,6.97
2023-05-23T12:58:50.365Z,7.55
2023-05-23T13:01:17.818Z,7.55
2023-05-23T13:03:46.345Z,7.13
2023-05-23T13:06:13.254Z,8.05
2023-05-23T13:08:40.455Z,7.53
2023-05-23T13:11:07.489Z,8.18
2023-05-23T13:13:34.518Z,10.90
2023-05-23T13:16:01.727Z,9.15
2023-05-23T13:18:28.823Z,8.43
2023-05-23T13:20:56.204Z,7.22
2023-05-23T13:23:24.720Z,6.22
2023-05-23T13:25:51.981Z,7.22
2023-05-23T13:28:19.616Z,6.47
2023-05-23T13:30:47.724Z,8.30
2023-05-23T13:33:15.113Z,6.72
2023-05-23T13:35:42.818Z,8.00
2023-05-23T13:38:10.328Z,9.20
2023-05-23T13:40:37.386Z,8.55
2023-05-23T13:43:04.645Z,9.63
2023-05-23T13:45:31.950Z,7.47
2023-05-23T13:47:59.059Z,9.05
2023-05-23T13:50:26.164Z,7.97
2023-05-23T13:52:53.196Z,8.60
2023-05-23T13:55:20.412Z,6.28
2023-05-23T13:57:47.535Z,7.50
2023-05-23T14:00:16.712Z,7.80
2023-05-23T14:02:47.215Z,9.80
2023-05-23T14:05:15.673Z,8.50
2023-05-23T14:07:47.186Z,8.48
2023-05-23T14:10:15.681Z,8.70
2023-05-23T14:12:42.972Z,7.32
2023-05-23T14:15:13.944Z,11.65
2023-05-23T14:17:40.892Z,11.13
2023-05-23T14:20:09.296Z,10.32
2023-05-23T14:22:36.904Z,10.65
2023-05-23T14:25:04.527Z,8.88
2023-05-23T14:27:35.858Z,7.85
2023-05-23T14:30:04.057Z,8.98
2023-05-23T14:32:33.722Z,8.63
2023-05-23T14:35:00.939Z,11.20
2023-05-23T14:37:28.362Z,9.65
2023-05-23T14:39:55.479Z,7.22
2023-05-23T14:42:22.854Z,8.93
2023-05-23T14:44:49.869Z,8.38
2023-05-23T14:47:17.239Z,9.30
2023-05-23T14:49:44.326Z,11.63
2023-05-23T14:52:12.774Z,7.97
2023-05-23T14:54:43.911Z,8.05
2023-05-23T14:57:11.416Z,8.43
2023-05-23T14:59:38.438Z,15.00
2023-05-23T15:02:07.557Z,9.60
2023-05-23T15:04:35.585Z,11.38
2023-05-23T15:07:02.919Z,14.52
2023-05-23T15:09:30.164Z,10.35
2023-05-23T15:11:57.337Z,10.38
2023-05-23T15:14:29.365Z,10.07
2023-05-23T15:16:56.802Z,8.93
2023-05-23T15:19:24.172Z,8.40
2023-05-23T15:21:51.942Z,10.95
2023-05-23T15:24:19.721Z,8.90
2023-05-23T15:26:47.573Z,10.70
2023-05-23T15:29:16.929Z,10.18
2023-05-23T15:31:45.428Z,9.88
2023-05-23T15:34:12.562Z,13.30
2023-05-23T15:36:40.664Z,13.82
2023-05-23T15:39:07.618Z,6.97
2023-05-23T15:41:34.815Z,6.88
2023-05-23T15:44:02.062Z,7.47
2023-05-23T15:46:29.102Z,8.25
2023-05-23T15:49:07.476Z,6.40
2023-05-23T15:51:44.586Z,7.78
2023-05-23T15:54:12.561Z,6.95
2023-05-23T15:56:39.911Z,8.35
2023-05-23T15:59:06.896Z,7.78
2023-05-23T16:01:34.763Z,9.73
2023-05-23T16:04:02.103Z,6.78
2023-05-23T16:06:29.283Z,6.90
2023-05-23T16:08:56.633Z,11.30
2023-05-23T16:11:24.374Z,7.70
2023-05-23T16:13:51.400Z,11.80
2023-05-23T16:16:18.396Z,9.68
2023-05-23T16:18:45.377Z,12.68
2023-05-23T16:21:12.729Z,9.82
2023-05-23T16:23:39.771Z,10.02
2023-05-23T16:26:06.836Z,9.05
2023-05-23T16:28:33.893Z,8.82
2023-05-23T16:31:00.871Z,11.05
2023-05-23T16:33:28.359Z,14.75
2023-05-23T16:35:55.436Z,12.43
2023-05-23T16:38:22.309Z,14.30
2023-05-23T16:40:49.229Z,11.10
2023-05-23T16:43:16.312Z,11.38
2023-05-23T16:45:43.966Z,11.35
2023-05-23T16:48:14.125Z,11.02
2023-05-23T16:50:41.215Z,11.27
2023-05-23T16:53:08.471Z,10.40
2023-05-23T16:55:38.906Z,9.85
2023-05-23T16:58:06.390Z,11.18
2023-05-23T17:00:33.613Z,9.75
2023-05-23T17:03:00.726Z,12.57
2023-05-23T17:05:28.045Z,12.43
2023-05-23T17:07:55.045Z,11.18
2023-05-23T17:10:22.995Z,11.30
2023-05-23T17:12:50.280Z,11.30
2023-05-23T17:15:17.225Z,13.55
2023-05-23T17:17:44.516Z,11.57
2023-05-23T17:20:11.769Z,11.65
2023-05-23T17:22:38.886Z,11.55
2023-05-23T17:25:06.555Z,15.80
2023-05-23T17:27:33.870Z,10.70
2023-05-23T17:30:04.786Z,10.40
2023-05-23T17:32:31.963Z,10.45
2023-05-23T17:34:59.123Z,9.90
2023-05-23T17:37:26.530Z,9.98
2023-05-23T17:39:55.342Z,10.20
2023-05-23T17:42:25.040Z,10.45
2023-05-23T17:44:52.037Z,8.18
2023-05-23T17:47:19.366Z,9.10
2023-05-23T17:49:46.266Z,9.40
2023-05-23T17:52:15.202Z,10.45
2023-05-23T17:54:42.612Z,8.38
2023-05-23T17:57:09.630Z,10.68
2023-05-23T17:59:37.891Z,8.77
2023-05-23T18:02:05.125Z,7.95
2023-05-23T18:04:32.191Z,9.57
2023-05-23T18:06:59.357Z,10.25
2023-05-23T18:09:26.468Z,9.10
2023-05-23T18:11:53.447Z,9.70
2023-05-23T18:14:20.464Z,12.48
2023-05-23T18:16:47.488Z,11.70
2023-05-23T18:19:14.722Z,13.50
2023-05-23T18:21:41.682Z,8.60
2023-05-23T18:24:09.672Z,8.20
2023-05-23T18:26:42.460Z,10.80
2023-05-23T18:29:12.495Z,10.15
2023-05-23T18:31:39.779Z,10.10
2023-05-23T18:34:06.871Z,9.80
2023-05-23T18:36:33.984Z,8.82
2023-05-23T18:39:01.065Z,15.65
2023-05-23T18:41:28.075Z,10.55
2023-05-23T18:43:55.085Z,8.80
2023-05-23T18:46:24.153Z,8.43
2023-05-23T18:48:53.065Z,10.05
2023-05-23T18:51:20.081Z,12.90
2023-05-23T18:53:47.198Z,9.07
2023-05-23T18:56:14.328Z,10.60
2023-05-23T18:58:41.838Z,11.52
2023-05-23T19:01:08.742Z,12.02
2023-05-23T19:03:37.216Z,10.73
2023-05-23T19:06:04.887Z,11.45
2023-05-23T19:08:32.623Z,13.30
2023-05-23T19:11:01.125Z,11.70
2023-05-23T19:13:28.188Z,10.00
2023-05-23T19:15:55.187Z,10.93
2023-05-23T19:18:22.575Z,11.50
2023-05-23T19:20:51.811Z,8.98
2023-05-23T19:23:19.084Z,16.52
2023-05-23T19:25:46.509Z,10.30
2023-05-23T19:28:15.147Z,10.57
2023-05-23T19:30:42.435Z,10.68
2023-05-23T19:33:10.229Z,12.63
2023-05-23T19:35:37.418Z,14.93
2023-05-23T19:38:07.293Z,14.35
2023-05-23T19:40:34.447Z,11.15
2023-05-23T19:43:01.348Z,10.45
2023-05-23T19:45:31.714Z,13.82
2023-05-23T19:47:58.756Z,11.07
2023-05-23T19:50:26.170Z,11.60
2023-05-23T19:52:53.175Z,12.65
2023-05-23T19:55:20.544Z,12.60
2023-05-23T19:57:47.587Z,13.20
2023-05-23T20:00:15.128Z,15.18
2023-05-23T20:02:42.676Z,11.30
2023-05-23T20:05:09.997Z,12.35
2023-05-23T20:07:37.721Z,11.70
2023-05-23T20:10:05.529Z,15.63
2023-05-23T20:12:32.507Z,14.48
2023-05-23T20:14:59.532Z,13.73
2023-05-23T20:17:26.594Z,12.07
2023-05-23T20:19:53.600Z,13.13
2023-05-23T20:22:20.722Z,13.70
2023-05-23T20:24:47.938Z,14.27
2023-05-23T20:27:16.172Z,16.60
2023-05-23T20:29:43.052Z,12.60
2023-05-23T20:32:10.147Z,14.80
2023-05-23T20:34:37.092Z,15.50
2023-05-23T20:37:05.126Z,14.10
2023-05-23T20:39:32.131Z,16.95
2023-05-23T20:42:00.218Z,14.50
2023-05-23T20:44:27.605Z,14.07
2023-05-23T20:46:57.159Z,17.77
2023-05-23T20:49:27.842Z,16.35
2023-05-23T20:51:55.464Z,14.38
2023-05-23T20:54:22.385Z,15.85
2023-05-23T20:56:49.587Z,16.13
2023-05-23T20:59:16.631Z,16.00
2023-05-23T21:01:43.965Z,12.35
2023-05-23T21:04:11.143Z,13.75
2023-05-23T21:06:38.458Z,15.55
2023-05-23T21:09:06.101Z,12.65
2023-05-23T21:11:32.976Z,14.07
2023-05-23T21:14:00.034Z,17.58
2023-05-23T21:16:27.003Z,15.77
2023-05-23T21:18:54.190Z,16.45
2023-05-23T21:21:21.326Z,18.52
2023-05-23T21:23:48.212Z,16.08
2023-05-23T21:26:15.381Z,15.52
2023-05-23T21:28:42.446Z,18.25
2023-05-23T21:31:09.862Z,15.05
2023-05-23T21:33:36.920Z,15.88
2023-05-23T21:36:04.051Z,13.35
2023-05-23T21:38:31.436Z,15.68
2023-05-23T21:40:58.470Z,18.55
2023-05-23T21:43:25.767Z,14.75
2023-05-23T21:45:52.972Z,17.20
2023-05-23T21:48:20.330Z,18.05
2023-05-23T21:50:47.311Z,19.42
2023-05-23T21:53:14.799Z,16.77
2023-05-23T21:55:41.949Z,17.10
2023-05-23T21:58:08.896Z,18.75
2023-05-23T22:00:35.980Z,18.02
2023-05-23T22:03:03.044Z,17.92
2023-05-23T22:05:30.469Z,16.70
2023-05-23T22:07:57.388Z,17.35
2023-05-23T22:10:24.262Z,19.48
2023-05-23T22:12:51.530Z,18.38
2023-05-23T22:15:18.617Z,17.88
2023-05-23T22:17:47.117Z,21.58
2023-05-23T22:20:16.168Z,18.70
2023-05-23T22:22:43.062Z,17.80
2023-05-23T22:25:11.408Z,17.98
2023-05-23T22:27:38.675Z,17.58
2023-05-23T22:30:07.013Z,16.30
2023-05-23T22:32:34.130Z,15.98
2023-05-23T22:35:04.386Z,19.35
2023-05-23T22:37:32.081Z,16.00
2023-05-23T22:39:59.122Z,18.35
2023-05-23T22:42:26.132Z,16.77
2023-05-23T22:44:53.263Z,17.45
2023-05-23T22:47:20.390Z,19.77
2023-05-23T22:49:47.615Z,17.17
2023-05-23T22:52:14.651Z,20.35
2023-05-23T22:54:41.652Z,21.10
2023-05-23T22:57:08.654Z,18.42
2023-05-23T22:59:35.778Z,20.23
2023-05-23T23:02:02.827Z,18.35
2023-05-23T23:04:31.826Z,19.23
2023-05-23T23:07:01.766Z,19.67
2023-05-23T23:09:28.791Z,22.83
2023-05-23T23:11:56.009Z,22.02
2023-05-23T23:14:22.984Z,21.65
2023-05-23T23:16:50.602Z,19.05
2023-05-23T23:19:18.256Z,20.08
2023-05-23T23:21:45.549Z,20.73
2023-05-23T23:24:13.973Z,19.95
2023-05-23T23:26:41.117Z,21.08
2023-05-23T23:29:08.511Z,21.10
2023-05-23T23:31:35.982Z,21.92
2023-05-23T23:34:02.999Z,21.40
2023-05-23T23:36:30.122Z,23.85
2023-05-23T23:38:57.641Z,23.83
2023-05-23T23:41:24.920Z,20.90
2023-05-23T23:43:52.261Z,23.33
2023-05-23T23:46:20.833Z,18.40
2023-05-23T23:48:48.304Z,25.92
2023-05-23T23:51:15.603Z,20.70
2023-05-23T23:53:43.802Z,20.92
2023-05-23T23:56:11.851Z,20.88
2023-05-23T23:58:39.384Z,20.23
